Time;durP1;ratioP1;P1;durP2;ratioP2;P2;SDS_P1;SDS_P2;PMS_P1;PMS_P2;Temp;Humidity;BMP_temperature;BMP_pressure;BME280_temperature;BME280_humidity;BME280_pressure;Samples;Min_cycle;Max_cycle;Signal;HPM_P1;HPM_P2
2024/04/15 00:00:43;;;;;;;2.63;1.00;;;20.50;61.50;;;;;;5260238;26;20010;-69
2024/04/15 00:03:08;;;;;;;1.83;1.20;;;20.50;61.60;;;;;;5265468;26;20016;-69
2024/04/15 00:05:33;;;;;;;1.85;1.20;;;20.50;61.50;;;;;;5261509;26;19998;-69
2024/04/15 00:08:00;;;;;;;2.70;1.40;;;20.50;61.50;;;;;;5248916;26;20455;-70
2024/04/15 00:10:26;;;;;;;2.00;1.20;;;20.50;61.50;;;;;;5255365;26;20003;-69
2024/04/15 00:12:51;;;;;;;1.52;0.90;;;20.50;61.50;;;;;;5264082;26;20077;-70
2024/04/15 00:15:17;;;;;;;2.08;1.15;;;20.50;61.50;;;;;;5265419;26;20021;-69
2024/04/15 00:17:43;;;;;;;4.90;1.40;;;20.50;61.50;;;;;;5258451;26;20358;-69
2024/04/15 00:20:08;;;;;;;1.40;1.08;;;20.50;61.50;;;;;;5231324;26;20011;-69
2024/04/15 00:22:34;;;;;;;2.47;1.48;;;20.50;61.50;;;;;;5267717;26;20021;-69
2024/04/15 00:24:59;;;;;;;1.80;0.98;;;20.50;61.40;;;;;;5249490;26;20014;-69
2024/04/15 00:27:25;;;;;;;2.65;1.25;;;20.50;61.40;;;;;;5264165;26;20095;-68
2024/04/15 00:29:50;;;;;;;2.47;0.80;;;20.50;61.50;;;;;;5259123;26;20444;-69
2024/04/15 00:32:16;;;;;;;1.75;0.90;;;20.50;61.40;;;;;;5253423;26;20006;-69
2024/04/15 00:34:41;;;;;;;2.25;1.00;;;20.50;61.40;;;;;;5248202;26;20300;-69
2024/04/15 00:37:07;;;;;;;1.40;1.00;;;20.50;61.50;;;;;;5258476;26;20003;-70
2024/04/15 00:39:32;;;;;;;1.30;0.93;;;20.50;61.40;;;;;;5258056;26;20473;-70
2024/04/15 00:41:58;;;;;;;2.28;1.20;;;20.50;61.60;;;;;;5271884;26;20001;-70
2024/04/15 00:44:34;;;;;;;1.63;0.98;;;20.50;61.40;;;;;;5265025;26;20025;-70
2024/04/15 00:47:03;;;;;;;1.52;1.10;;;20.50;61.40;;;;;;5264677;26;20081;-70
2024/04/15 00:49:34;;;;;;;0.93;0.70;;;20.50;61.40;;;;;;5246882;26;20002;-70
2024/04/15 00:52:02;;;;;;;1.67;0.82;;;20.50;61.50;;;;;;5251792;26;20084;-70
2024/04/15 00:54:30;;;;;;;1.85;0.82;;;20.50;61.50;;;;;;5249942;26;20014;-70
2024/04/15 00:56:56;;;;;;;0.93;0.50;;;20.50;61.50;;;;;;5253520;26;20097;-70
2024/04/15 00:59:23;;;;;;;1.33;0.75;;;20.40;61.40;;;;;;5244960;26;20018;-70
2024/04/15 01:01:50;;;;;;;1.40;0.63;;;20.50;61.40;;;;;;5236757;26;20017;-70
2024/04/15 01:04:15;;;;;;;1.35;0.90;;;20.50;61.40;;;;;;5242443;26;20006;-70
2024/04/15 01:06:42;;;;;;;2.78;0.90;;;20.50;61.50;;;;;;5253515;26;20469;-70
2024/04/15 01:09:07;;;;;;;2.63;1.05;;;20.40;61.40;;;;;;5254527;26;20458;-70
2024/04/15 01:11:33;;;;;;;1.70;0.80;;;20.40;61.40;;;;;;5252453;26;20097;-70
2024/04/15 01:14:01;;;;;;;1.55;0.82;;;20.40;61.40;;;;;;5255654;26;20461;-70
2024/04/15 01:16:37;;;;;;;2.58;1.08;;;20.40;61.40;;;;;;5256294;26;20014;-69
2024/04/15 01:19:03;;;;;;;1.25;0.75;;;20.40;61.40;;;;;;5253573;26;20347;-71
2024/04/15 01:21:29;;;;;;;1.88;0.70;;;20.40;61.40;;;;;;5258025;26;20439;-69
2024/04/15 01:23:55;;;;;;;1.75;1.00;;;20.40;61.40;;;;;;5264468;26;20013;-70
2024/04/15 01:26:20;;;;;;;2.20;0.70;;;20.40;61.40;;;;;;5257455;26;20014;-69
2024/04/15 01:28:46;;;;;;;1.38;0.88;;;20.40;61.40;;;;;;5265248;26;20446;-70
2024/04/15 01:31:11;;;;;;;1.98;1.00;;;20.40;61.40;;;;;;5262071;26;20021;-69
2024/04/15 01:33:37;;;;;;;0.90;0.60;;;20.40;61.30;;;;;;5257132;26;20484;-70
2024/04/15 01:36:02;;;;;;;1.30;0.98;;;20.40;61.50;;;;;;5250828;26;20010;-74
2024/04/15 01:38:28;;;;;;;0.95;0.70;;;20.40;61.40;;;;;;5259579;26;20003;-70
2024/04/15 01:40:53;;;;;;;2.55;0.90;;;20.40;61.40;;;;;;5267904;26;20002;-71
2024/04/15 01:43:19;;;;;;;1.63;0.80;;;20.40;61.40;;;;;;5260683;26;20018;-70
2024/04/15 01:45:45;;;;;;;1.15;0.90;;;20.40;61.40;;;;;;5256876;26;20281;-69
2024/04/15 01:48:11;;;;;;;1.38;0.73;;;20.40;61.40;;;;;;5261405;26;20081;-69
2024/04/15 01:50:37;;;;;;;1.20;0.80;;;20.40;61.40;;;;;;5266960;26;20010;-70
2024/04/15 01:53:06;;;;;;;1.42;0.55;;;20.40;61.40;;;;;;5263709;26;20075;-71
2024/04/15 01:55:32;;;;;;;2.38;1.10;;;20.40;61.40;;;;;;5270598;26;20396;-69
2024/04/15 01:57:57;;;;;;;1.90;0.70;;;20.40;61.40;;;;;;5257923;26;20454;-70
2024/04/15 02:00:23;;;;;;;1.65;0.82;;;20.40;61.40;;;;;;5266004;26;20014;-69
2024/04/15 02:02:49;;;;;;;1.52;0.82;;;20.40;61.40;;;;;;5248913;26;20002;-70
2024/04/15 02:05:14;;;;;;;1.33;0.73;;;20.40;61.40;;;;;;5231055;26;20081;-69
2024/04/15 02:07:40;;;;;;;1.00;0.55;;;20.40;61.30;;;;;;5241586;26;20002;-69
2024/04/15 02:10:06;;;;;;;1.10;0.77;;;20.40;61.40;;;;;;5228089;26;20067;-69
2024/04/15 02:12:32;;;;;;;1.13;0.80;;;20.40;61.40;;;;;;5249751;26;20361;-69
2024/04/15 02:14:57;;;;;;;1.17;0.90;;;20.40;61.30;;;;;;5243850;26;20313;-69
2024/04/15 02:17:23;;;;;;;0.93;0.70;;;20.40;61.40;;;;;;5247236;26;20023;-69
2024/04/15 02:19:48;;;;;;;1.35;0.70;;;20.40;61.40;;;;;;5264705;26;20002;-69
2024/04/15 02:22:14;;;;;;;2.35;0.80;;;20.40;61.40;;;;;;5276116;26;20003;-68
2024/04/15 02:24:39;;;;;;;1.35;1.00;;;20.40;61.40;;;;;;5240436;26;20095;-68
2024/04/15 02:27:05;;;;;;;1.58;0.70;;;20.30;61.30;;;;;;5275873;26;20001;-69
2024/04/15 02:29:30;;;;;;;1.73;0.70;;;20.30;61.30;;;;;;5262569;26;20035;-68
2024/04/15 02:31:56;;;;;;;1.38;0.90;;;20.30;62.00;;;;;;5255609;26;20010;-69
2024/04/15 02:34:21;;;;;;;2.22;0.90;;;20.30;61.30;;;;;;5263565;26;20004;-69
2024/04/15 02:36:47;;;;;;;1.42;0.68;;;20.40;61.40;;;;;;5264175;26;20002;-69
2024/04/15 02:39:12;;;;;;;0.90;0.68;;;20.30;61.30;;;;;;5262871;26;20081;-69
2024/04/15 02:41:38;;;;;;;1.50;0.90;;;20.30;61.30;;;;;;5257517;26;20010;-68
2024/04/15 02:44:03;;;;;;;1.30;0.80;;;20.30;61.30;;;;;;5262047;26;20453;-69
2024/04/15 02:46:29;;;;;;;2.33;0.90;;;20.30;61.30;;;;;;5267533;26;20087;-68
2024/04/15 02:48:54;;;;;;;2.28;0.73;;;20.30;61.30;;;;;;5270090;26;20017;-68
2024/04/15 02:51:20;;;;;;;1.50;0.63;;;20.30;61.20;;;;;;5241281;26;20015;-67
2024/04/15 02:53:45;;;;;;;1.33;0.90;;;20.30;61.40;;;;;;5263156;26;20101;-69
2024/04/15 02:56:11;;;;;;;1.10;0.52;;;20.30;61.30;;;;;;5269451;26;20018;-68
2024/04/15 02:58:36;;;;;;;2.92;0.85;;;20.30;61.30;;;;;;5272285;26;20013;-69
2024/04/15 03:01:02;;;;;;;1.55;0.75;;;20.30;61.30;;;;;;5246939;26;20100;-66
2024/04/15 03:03:27;;;;;;;1.52;0.80;;;20.30;61.30;;;;;;5245549;26;20103;-69
2024/04/15 03:05:53;;;;;;;2.10;0.70;;;20.30;61.30;;;;;;5230840;26;20053;-68
2024/04/15 03:08:18;;;;;;;1.15;0.80;;;20.30;61.30;;;;;;5242934;26;20542;-68
2024/04/15 03:10:44;;;;;;;2.03;1.00;;;20.30;61.30;;;;;;5263489;26;20338;-68
2024/04/15 03:13:09;;;;;;;1.27;0.90;;;20.30;61.40;;;;;;5237888;26;20002;-67
2024/04/15 03:15:35;;;;;;;2.05;0.90;;;20.30;61.30;;;;;;5249584;26;20013;-68
2024/04/15 03:18:02;;;;;;;1.95;0.70;;;20.30;61.30;;;;;;5249041;26;20548;-68
2024/04/15 03:20:29;;;;;;;2.83;1.00;;;20.30;61.30;;;;;;5256595;26;20030;-69
2024/04/15 03:22:54;;;;;;;1.40;0.80;;;20.30;61.30;;;;;;5266739;26;21607;-69
2024/04/15 03:25:22;;;;;;;3.28;1.25;;;20.30;61.40;;;;;;5278665;26;20018;-68
2024/04/15 03:27:48;;;;;;;1.92;0.70;;;20.20;61.30;;;;;;5258895;26;20421;-68
2024/04/15 03:30:14;;;;;;;1.08;0.70;;;20.30;61.30;;;;;;5252213;26;20525;-68
2024/04/15 03:32:40;;;;;;;2.53;0.80;;;20.30;61.30;;;;;;5260348;26;20009;-68
2024/04/15 03:35:11;;;;;;;1.83;0.70;;;20.20;61.30;;;;;;5271029;26;20503;-68
2024/04/15 03:37:36;;;;;;;1.67;0.82;;;20.30;61.40;;;;;;5257311;26;20108;-68
2024/04/15 03:40:02;;;;;;;1.55;0.90;;;20.20;61.30;;;;;;5271348;26;20009;-68
2024/04/15 03:42:28;;;;;;;1.83;0.75;;;20.20;61.20;;;;;;5265323;26;20026;-68
2024/04/15 03:44:54;;;;;;;1.88;0.70;;;20.20;61.20;;;;;;5255375;26;23014;-68
2024/04/15 03:47:20;;;;;;;1.30;0.85;;;20.20;61.30;;;;;;5253029;26;20372;-68
2024/04/15 03:49:45;;;;;;;2.75;1.00;;;20.20;61.20;;;;;;5255657;26;20030;-67
2024/04/15 03:52:11;;;;;;;1.88;0.88;;;20.20;61.20;;;;;;5259557;26;20495;-67
2024/04/15 03:54:38;;;;;;;2.53;0.90;;;20.20;61.20;;;;;;5258017;26;20081;-68
2024/04/15 03:57:04;;;;;;;1.45;0.98;;;20.20;61.30;;;;;;5262900;26;20002;-68
2024/04/15 03:59:30;;;;;;;0.63;0.45;;;20.20;61.30;;;;;;5262270;26;20022;-68
2024/04/15 04:01:56;;;;;;;1.23;0.85;;;20.20;61.30;;;;;;5263337;26;20013;-68
2024/04/15 04:04:22;;;;;;;2.28;0.70;;;20.20;61.30;;;;;;5257625;26;20003;-68
2024/04/15 04:06:48;;;;;;;2.00;0.82;;;20.20;61.40;;;;;;5263253;26;20017;-68
2024/04/15 04:09:13;;;;;;;2.67;0.70;;;20.20;61.30;;;;;;5262441;26;20345;-68
2024/04/15 04:11:39;;;;;;;0.80;0.55;;;20.20;61.30;;;;;;5265547;26;20047;-68
2024/04/15 04:14:04;;;;;;;1.65;0.60;;;20.20;61.30;;;;;;5261858;26;19998;-68
2024/04/15 04:16:30;;;;;;;0.90;0.55;;;20.20;61.30;;;;;;5266514;26;20038;-67
2024/04/15 04:18:56;;;;;;;1.30;0.65;;;20.20;61.30;;;;;;5270812;26;20002;-69
2024/04/15 04:21:21;;;;;;;2.05;0.65;;;20.20;61.30;;;;;;5265813;26;20033;-68
2024/04/15 04:23:47;;;;;;;1.50;0.60;;;20.20;61.30;;;;;;5269690;26;20089;-68
2024/04/15 04:26:12;;;;;;;1.67;0.63;;;20.20;61.30;;;;;;5264465;26;20017;-68
2024/04/15 04:28:38;;;;;;;1.83;0.70;;;20.20;61.20;;;;;;5265424;26;20006;-67
2024/04/15 04:31:04;;;;;;;2.95;0.60;;;20.20;61.40;;;;;;5266961;26;20038;-69
2024/04/15 04:33:31;;;;;;;1.73;0.65;;;20.20;61.30;;;;;;5265878;26;20011;-68
2024/04/15 04:35:57;;;;;;;1.63;0.70;;;20.20;61.30;;;;;;5263952;26;20002;-67
2024/04/15 04:38:22;;;;;;;1.90;0.65;;;20.20;61.30;;;;;;5249984;26;20055;-68
2024/04/15 04:40:58;;;;;;;1.02;0.60;;;20.20;61.30;;;;;;5266771;26;20010;-68
2024/04/15 04:43:24;;;;;;;1.10;0.70;;;20.20;61.30;;;;;;5263578;26;20014;-67
2024/04/15 04:45:49;;;;;;;1.98;0.73;;;20.10;61.30;;;;;;5273872;26;20464;-68
2024/04/15 04:48:14;;;;;;;1.55;0.70;;;20.10;61.30;;;;;;5266846;26;20002;-67
2024/04/15 04:50:40;;;;;;;0.77;0.50;;;20.10;61.30;;;;;;5265854;26;20002;-68
2024/04/15 04:53:05;;;;;;;1.63;0.85;;;20.10;61.20;;;;;;5272053;26;19998;-68
2024/04/15 04:55:36;;;;;;;1.33;0.68;;;20.20;61.30;;;;;;5263828;26;20014;-70
2024/04/15 04:58:03;;;;;;;1.00;0.55;;;20.10;61.30;;;;;;5261089;26;19998;-70
2024/04/15 05:00:28;;;;;;;1.27;0.60;;;20.10;61.30;;;;;;5261573;26;20007;-69
2024/04/15 05:02:54;;;;;;;1.42;0.45;;;20.10;61.30;;;;;;5268413;26;20090;-70
2024/04/15 05:05:19;;;;;;;1.48;0.60;;;20.10;61.40;;;;;;5265372;26;20450;-69
2024/04/15 05:07:45;;;;;;;1.65;0.70;;;20.10;61.30;;;;;;5267177;26;20177;-69
2024/04/15 05:10:10;;;;;;;1.95;0.57;;;20.10;61.40;;;;;;5251869;26;20017;-69
2024/04/15 05:12:36;;;;;;;1.60;0.60;;;20.10;61.40;;;;;;5249977;26;20756;-67
2024/04/15 05:15:01;;;;;;;1.27;0.73;;;20.10;61.40;;;;;;5261372;26;20404;-68
2024/04/15 05:17:27;;;;;;;0.80;0.65;;;20.10;61.40;;;;;;5253485;26;20003;-68
2024/04/15 05:19:52;;;;;;;1.52;0.60;;;20.10;61.40;;;;;;5256568;26;20010;-69
2024/04/15 05:22:18;;;;;;;1.13;0.80;;;20.10;61.50;;;;;;5246283;26;20104;-68
2024/04/15 05:24:43;;;;;;;1.38;0.80;;;20.10;61.50;;;;;;5243068;26;20015;-67
2024/04/15 05:27:09;;;;;;;2.63;0.52;;;20.10;61.50;;;;;;5258728;26;20520;-66
2024/04/15 05:29:34;;;;;;;0.80;0.68;;;20.10;61.50;;;;;;5260140;26;20380;-67
2024/04/15 05:32:00;;;;;;;3.60;0.60;;;20.10;61.50;;;;;;5269925;26;20482;-67
2024/04/15 05:34:25;;;;;;;1.55;0.52;;;20.10;61.50;;;;;;5264577;26;20007;-68
2024/04/15 05:36:50;;;;;;;1.55;0.70;;;20.10;61.50;;;;;;5275411;26;20018;-68
2024/04/15 05:39:16;;;;;;;3.08;0.70;;;20.10;61.50;;;;;;5267758;26;20539;-67
2024/04/15 05:41:41;;;;;;;1.90;0.63;;;20.10;61.50;;;;;;5253602;26;20002;-69
2024/04/15 05:44:07;;;;;;;2.80;0.68;;;20.10;61.50;;;;;;5254247;26;20061;-68
2024/04/15 05:46:35;;;;;;;1.38;0.85;;;20.10;61.50;;;;;;5252368;26;20405;-67
2024/04/15 05:49:01;;;;;;;1.92;1.05;;;20.10;61.50;;;;;;5250791;26;20661;-67
2024/04/15 05:51:26;;;;;;;2.28;1.50;;;20.10;61.40;;;;;;5257109;26;20462;-66
2024/04/15 05:53:52;;;;;;;1.00;0.73;;;20.10;61.50;;;;;;5247790;26;20006;-67
2024/04/15 05:56:17;;;;;;;3.20;1.13;;;20.10;61.40;;;;;;5249965;26;20080;-67
2024/04/15 05:58:43;;;;;;;2.22;1.15;;;20.10;61.40;;;;;;5247684;26;20540;-67
2024/04/15 06:01:08;;;;;;;2.83;1.30;;;20.10;61.40;;;;;;5248574;26;20018;-66
2024/04/15 06:03:33;;;;;;;2.22;1.65;;;20.10;61.30;;;;;;5265582;26;20020;-66
2024/04/15 06:05:59;;;;;;;2.50;1.45;;;20.10;61.40;;;;;;5234237;26;20026;-66
2024/04/15 06:08:24;;;;;;;4.07;1.60;;;20.10;61.40;;;;;;5250820;26;20341;-66
2024/04/15 06:10:50;;;;;;;2.42;1.70;;;20.00;61.30;;;;;;5270656;26;20198;-66
2024/04/15 06:13:19;;;;;;;3.53;1.58;;;20.10;61.30;;;;;;5255158;26;20176;-66
2024/04/15 06:15:44;;;;;;;2.90;1.70;;;20.10;61.30;;;;;;5265649;26;20011;-68
2024/04/15 06:18:10;;;;;;;2.38;1.42;;;20.10;61.40;;;;;;5262669;26;20018;-66
2024/04/15 06:20:35;;;;;;;2.85;1.88;;;20.00;61.20;;;;;;5267357;26;20454;-66
2024/04/15 06:23:01;;;;;;;2.58;1.90;;;20.10;61.30;;;;;;5268642;26;20011;-67
2024/04/15 06:25:26;;;;;;;4.30;1.92;;;20.10;61.30;;;;;;5270962;26;20034;-66
2024/04/15 06:27:52;;;;;;;5.10;2.15;;;20.10;61.30;;;;;;5252535;26;20003;-67
2024/04/15 06:30:18;;;;;;;5.85;2.58;;;20.10;61.30;;;;;;5271477;26;19997;-66
2024/04/15 06:32:43;;;;;;;4.03;2.15;;;20.10;61.30;;;;;;5262618;26;20002;-67
2024/04/15 06:35:09;;;;;;;4.05;2.90;;;20.10;61.30;;;;;;5266943;26;20022;-66
2024/04/15 06:37:34;;;;;;;2.65;2.00;;;20.10;61.30;;;;;;5259898;26;20017;-67
2024/04/15 06:40:00;;;;;;;3.28;2.20;;;20.10;61.30;;;;;;5271499;26;20374;-68
2024/04/15 06:42:25;;;;;;;3.50;2.00;;;20.10;61.30;;;;;;5266728;26;20130;-67
2024/04/15 06:44:51;;;;;;;3.83;2.03;;;20.10;61.30;;;;;;5274877;26;20452;-67
2024/04/15 06:47:16;;;;;;;3.30;2.05;;;20.10;61.30;;;;;;5251157;26;20015;-67
2024/04/15 06:49:42;;;;;;;5.20;2.72;;;20.10;61.20;;;;;;5244957;26;20006;-66
2024/04/15 06:52:07;;;;;;;3.60;2.33;;;20.10;61.20;;;;;;5235581;26;20353;-67
2024/04/15 06:54:33;;;;;;;4.25;3.40;;;20.10;61.00;;;;;;5243849;26;20062;-67
2024/04/15 06:56:58;;;;;;;3.90;2.78;;;20.00;61.00;;;;;;5257635;26;20095;-67
2024/04/15 06:59:23;;;;;;;6.18;3.13;;;20.10;61.00;;;;;;5244209;26;19998;-65
2024/04/15 07:01:49;;;;;;;4.10;2.97;;;20.10;60.90;;;;;;5249346;26;20500;-69
2024/04/15 07:04:14;;;;;;;3.53;2.47;;;20.10;60.90;;;;;;5255025;26;20013;-70
2024/04/15 07:06:40;;;;;;;6.68;4.03;;;20.10;61.00;;;;;;5249403;26;20006;-68
2024/04/15 07:09:05;;;;;;;17.90;10.57;;;20.10;61.10;;;;;;5249390;26;20407;-72
2024/04/15 07:11:32;;;;;;;26.05;15.05;;;20.10;61.20;;;;;;5245672;26;20002;-72
2024/04/15 07:13:57;;;;;;;32.83;17.27;;;20.10;61.20;;;;;;5232892;26;20006;-73
2024/04/15 07:16:23;;;;;;;38.00;21.17;;;20.10;61.20;;;;;;5244703;26;20089;-71
2024/04/15 07:18:48;;;;;;;44.35;24.60;;;20.20;61.20;;;;;;5253084;26;20010;-73
2024/04/15 07:21:14;;;;;;;45.70;22.83;;;20.10;61.30;;;;;;5253127;26;20006;-72
2024/04/15 07:23:40;;;;;;;43.80;24.85;;;20.20;61.30;;;;;;5255150;26;20671;-73
2024/04/15 07:26:05;;;;;;;42.15;24.42;;;20.20;61.30;;;;;;5247079;26;20046;-72
2024/04/15 07:28:31;;;;;;;45.55;25.52;;;20.20;61.30;;;;;;5253798;26;20045;-71
2024/04/15 07:31:00;;;;;;;43.67;26.20;;;20.20;61.30;;;;;;5255931;26;20363;-71
2024/04/15 07:33:26;;;;;;;47.47;25.75;;;20.20;61.30;;;;;;5247881;26;20469;-72
2024/04/15 07:35:55;;;;;;;53.67;25.90;;;20.20;61.80;;;;;;5274841;26;20081;-74
2024/04/15 07:38:21;;;;;;;41.70;24.88;;;20.20;61.30;;;;;;5258591;26;20058;-72
2024/04/15 07:40:46;;;;;;;48.33;25.77;;;20.20;61.30;;;;;;5262508;26;20015;-72
2024/04/15 07:43:13;;;;;;;45.15;24.42;;;20.20;61.30;;;;;;5274181;26;20013;-72
2024/04/15 07:45:38;;;;;;;41.03;24.50;;;20.20;61.30;;;;;;5271949;26;20015;-72
2024/04/15 07:48:04;;;;;;;42.15;24.13;;;20.20;61.30;;;;;;5275129;26;20010;-71
2024/04/15 07:50:30;;;;;;;41.40;24.63;;;20.20;61.30;;;;;;5274095;26;20006;-71
2024/04/15 07:52:55;;;;;;;41.30;23.90;;;20.20;61.30;;;;;;5272199;26;20017;-72
2024/04/15 07:55:21;;;;;;;43.83;23.63;;;20.20;61.30;;;;;;5273077;26;20004;-72
2024/04/15 07:57:46;;;;;;;36.30;21.60;;;20.20;61.40;;;;;;5272153;26;20050;-71
2024/04/15 08:00:12;;;;;;;38.78;20.80;;;20.20;61.30;;;;;;5261392;26;20641;-71
2024/04/15 08:02:38;;;;;;;45.50;22.83;;;20.20;61.40;;;;;;5265994;26;20461;-72
2024/04/15 08:05:03;;;;;;;38.00;22.05;;;20.20;61.40;;;;;;5267890;26;20128;-73
2024/04/15 08:07:29;;;;;;;39.53;21.67;;;20.20;61.40;;;;;;5278868;26;20016;-71
2024/04/15 08:09:58;;;;;;;33.28;19.73;;;20.20;61.40;;;;;;5277292;26;20002;-72
2024/04/15 08:12:23;;;;;;;37.10;19.95;;;20.20;61.10;;;;;;5276862;26;20012;-72
2024/04/15 08:14:49;;;;;;;44.45;19.38;;;20.20;61.20;;;;;;5258868;26;20002;-71
2024/04/15 08:17:14;;;;;;;34.88;17.63;;;20.20;61.20;;;;;;5267922;26;20016;-72
2024/04/15 08:19:40;;;;;;;30.83;18.15;;;20.20;61.30;;;;;;5269883;26;19998;-71
2024/04/15 08:22:05;;;;;;;29.20;16.15;;;20.20;61.30;;;;;;5276044;26;20088;-72
2024/04/15 08:24:31;;;;;;;33.78;17.98;;;20.30;61.30;;;;;;5267980;26;19998;-71
2024/04/15 08:26:56;;;;;;;30.20;16.30;;;20.20;61.90;;;;;;5278480;26;20035;-71
2024/04/15 08:29:22;;;;;;;25.55;15.15;;;20.20;61.30;;;;;;5276464;26;19998;-72
2024/04/15 08:31:47;;;;;;;25.23;14.65;;;20.20;61.30;;;;;;5266622;26;21116;-71
2024/04/15 08:34:13;;;;;;;24.80;15.32;;;20.30;61.30;;;;;;5268372;26;19998;-72
2024/04/15 08:36:38;;;;;;;26.10;14.70;;;20.20;61.30;;;;;;5264627;26;20087;-71
2024/04/15 08:39:04;;;;;;;25.20;13.95;;;20.30;61.30;;;;;;5282023;26;20020;-72
2024/04/15 08:41:35;;;;;;;21.92;13.10;;;20.20;61.30;;;;;;5266681;26;20457;-71
2024/04/15 08:44:05;;;;;;;25.77;12.85;;;20.20;61.20;;;;;;5270994;26;20003;-71
2024/04/15 08:46:44;;;;;;;23.48;13.13;;;20.20;61.10;;;;;;5269117;26;20031;-72
2024/04/15 08:49:10;;;;;;;23.15;13.23;;;20.20;61.20;;;;;;5270930;26;20453;-71
2024/04/15 08:51:35;;;;;;;21.98;11.70;;;20.20;61.20;;;;;;5275484;26;20024;-72
2024/04/15 08:54:01;;;;;;;21.40;11.50;;;20.20;61.30;;;;;;5270561;26;20021;-71
2024/04/15 08:56:30;;;;;;;18.23;11.30;;;20.20;61.20;;;;;;5278150;26;20006;-72
2024/04/15 08:58:58;;;;;;;19.90;11.35;;;20.20;61.10;;;;;;5274034;26;19998;-71
2024/04/15 09:01:25;;;;;;;23.98;10.57;;;20.20;61.20;;;;;;5275590;26;19999;-71
2024/04/15 09:03:51;;;;;;;16.42;10.60;;;20.20;61.10;;;;;;5272818;26;20020;-72
2024/04/15 09:06:16;;;;;;;16.48;9.60;;;20.20;61.10;;;;;;5261784;26;20462;-71
2024/04/15 09:08:43;;;;;;;17.23;9.60;;;20.20;61.10;;;;;;5276147;26;20018;-71
2024/04/15 09:11:09;;;;;;;17.45;9.82;;;20.20;61.10;;;;;;5272674;26;20096;-72
2024/04/15 09:13:34;;;;;;;17.00;10.48;;;20.20;61.30;;;;;;5269635;26;20010;-72
2024/04/15 09:16:00;;;;;;;18.17;10.20;;;20.20;61.20;;;;;;5267269;26;20438;-72
2024/04/15 09:18:25;;;;;;;15.10;8.90;;;20.20;61.10;;;;;;5263763;26;20011;-72
2024/04/15 09:20:53;;;;;;;14.38;8.77;;;20.20;61.20;;;;;;5264438;26;20014;-71
2024/04/15 09:23:18;;;;;;;13.52;7.85;;;20.20;61.10;;;;;;5272414;26;20002;-72
2024/04/15 09:25:44;;;;;;;16.10;7.95;;;20.20;61.10;;;;;;5264711;26;20084;-71
2024/04/15 09:28:09;;;;;;;15.60;8.70;;;20.20;61.20;;;;;;5269616;26;20013;-72
2024/04/15 09:30:35;;;;;;;14.18;7.40;;;20.20;61.20;;;;;;5277500;26;19998;-72
2024/04/15 09:33:01;;;;;;;15.02;8.10;;;20.20;61.20;;;;;;5280177;26;20084;-75
2024/04/15 09:35:27;;;;;;;13.02;7.32;;;20.30;61.20;;;;;;5273674;26;20016;-71
2024/04/15 09:37:54;;;;;;;11.25;7.07;;;20.20;61.30;;;;;;5263093;26;20462;-70
2024/04/15 09:40:23;;;;;;;13.95;7.93;;;20.30;61.20;;;;;;5272281;26;20358;-72
2024/04/15 09:42:52;;;;;;;11.45;6.88;;;20.30;61.20;;;;;;5259699;26;20012;-72
2024/04/15 09:45:19;;;;;;;13.93;7.90;;;20.30;61.40;;;;;;5280509;26;20098;-72
2024/04/15 09:47:46;;;;;;;13.27;7.32;;;20.30;61.40;;;;;;5265923;26;20088;-72
2024/04/15 09:50:12;;;;;;;13.98;8.38;;;20.30;61.50;;;;;;5269890;26;20017;-72
2024/04/15 09:52:40;;;;;;;14.25;8.73;;;20.30;61.50;;;;;;5263088;26;20479;-72
2024/04/15 09:55:08;;;;;;;13.82;8.45;;;20.30;61.60;;;;;;5271859;26;20006;-70
2024/04/15 09:57:41;;;;;;;14.93;7.68;;;20.20;61.40;;;;;;5275262;26;20020;-72
2024/04/15 10:00:13;;;;;;;13.73;8.05;;;20.20;61.40;;;;;;5274441;26;20013;-72
2024/04/15 10:03:03;;;;;;;14.32;7.97;;;20.20;61.60;;;;;;5267211;26;20085;-71
2024/04/15 10:05:32;;;;;;;13.68;8.10;;;20.20;61.40;;;;;;5267644;26;20002;-72
2024/04/15 10:07:57;;;;;;;13.20;8.02;;;20.20;61.40;;;;;;5275847;26;20011;-73
2024/04/15 10:10:26;;;;;;;12.13;7.82;;;20.20;61.40;;;;;;5271570;26;20078;-73
2024/04/15 10:12:54;;;;;;;13.75;7.45;;;20.20;61.40;;;;;;5264084;26;20082;-73
2024/04/15 10:15:21;;;;;;;13.23;7.43;;;20.20;61.40;;;;;;5277143;26;20017;-72
2024/04/15 10:17:56;;;;;;;12.77;7.75;;;20.20;61.60;;;;;;5262632;26;20038;-72
2024/04/15 10:20:26;;;;;;;;;;;20.20;61.40;;;;;;5265140;26;20096;-72
2024/04/15 10:22:57;;;;;;;14.32;7.45;;;20.20;61.40;;;;;;5269051;26;19967;-73
2024/04/15 10:25:22;;;;;;;17.40;8.10;;;20.20;61.50;;;;;;5272387;26;20009;-72
2024/04/15 10:27:48;;;;;;;11.90;6.93;;;20.20;61.60;;;;;;5279312;26;20026;-71
2024/04/15 10:30:19;;;;;;;11.57;7.47;;;20.20;61.60;;;;;;5275978;26;20012;-71
2024/04/15 10:32:48;;;;;;;11.48;7.22;;;20.20;61.80;;;;;;5265812;26;20536;-73
2024/04/15 10:35:24;;;;;;;15.32;8.43;;;20.20;61.60;;;;;;5257101;26;20008;-71
2024/04/15 10:37:51;;;;;;;11.70;6.63;;;20.20;61.60;;;;;;5259205;26;20461;-72
2024/04/15 10:40:20;;;;;;;13.75;7.43;;;20.20;61.60;;;;;;5259710;26;20017;-72
2024/04/15 10:42:45;;;;;;;10.68;6.85;;;20.20;61.80;;;;;;5266446;26;20025;-70
2024/04/15 10:45:17;;;;;;;11.10;6.70;;;20.20;61.60;;;;;;5271465;26;20387;-71
2024/04/15 10:47:48;;;;;;;12.77;6.35;;;20.20;61.70;;;;;;5254045;26;20006;-72
2024/04/15 10:50:13;;;;;;;11.73;7.13;;;20.20;61.70;;;;;;5264621;26;20020;-71
2024/04/15 10:52:39;;;;;;;9.35;6.30;;;20.20;61.80;;;;;;5267455;26;20010;-71
2024/04/15 10:55:05;;;;;;;12.63;6.00;;;20.20;61.80;;;;;;5262406;26;20323;-72
2024/04/15 10:57:31;;;;;;;10.10;5.97;;;20.20;61.60;;;;;;5264608;26;20003;-72
2024/04/15 10:59:56;;;;;;;10.93;5.57;;;20.20;61.70;;;;;;5268348;26;20746;-72
2024/04/15 11:02:22;;;;;;;11.07;6.13;;;20.20;62.30;;;;;;5278995;26;20024;-71
2024/04/15 11:04:48;;;;;;;10.45;6.38;;;20.20;61.70;;;;;;5258976;26;20065;-72
2024/04/15 11:07:17;;;;;;;11.05;6.20;;;20.20;61.70;;;;;;5273317;26;20084;-71
2024/04/15 11:09:42;;;;;;;8.40;5.90;;;20.20;61.70;;;;;;5272948;26;20081;-72
2024/04/15 11:12:09;;;;;;;9.77;6.30;;;20.20;61.70;;;;;;5274584;26;20014;-71
2024/04/15 11:14:34;;;;;;;9.80;6.25;;;20.20;61.60;;;;;;5271578;26;20013;-72
2024/04/15 11:17:00;;;;;;;9.52;5.97;;;20.20;61.80;;;;;;5266956;26;20010;-71
2024/04/15 11:19:26;;;;;;;8.57;5.10;;;20.10;61.80;;;;;;5271439;26;20531;-71
2024/04/15 11:22:05;;;;;;;8.93;5.53;;;20.20;61.70;;;;;;5269262;26;20018;-72
2024/04/15 11:24:33;;;;;;;7.95;5.07;;;20.10;61.70;;;;;;5270511;26;20001;-72
2024/04/15 11:26:59;;;;;;;7.68;5.20;;;20.20;61.70;;;;;;5268728;26;20002;-72
2024/04/15 11:29:24;;;;;;;8.23;5.38;;;20.20;61.70;;;;;;5278357;26;20739;-71
2024/04/15 11:31:50;;;;;;;8.68;5.55;;;20.10;61.70;;;;;;5271291;26;20024;-71
2024/04/15 11:34:15;;;;;;;10.13;5.15;;;20.20;61.80;;;;;;5272142;26;20451;-72
2024/04/15 11:36:46;;;;;;;6.90;4.53;;;20.20;61.80;;;;;;5265521;26;20425;-72
2024/04/15 11:39:13;;;;;;;6.97;4.70;;;20.20;61.90;;;;;;5299310;26;20050;-72
2024/04/15 11:41:38;;;;;;;6.30;4.70;;;20.20;61.60;;;;;;5259298;26;20007;-72
2024/04/15 11:44:04;;;;;;;8.07;4.63;;;20.20;61.70;;;;;;5271395;26;20485;-72
2024/04/15 11:46:30;;;;;;;9.52;5.57;;;20.20;61.80;;;;;;5273126;26;20009;-71
2024/04/15 11:48:56;;;;;;;8.43;4.82;;;20.20;61.90;;;;;;5272234;26;20331;-72
2024/04/15 11:51:22;;;;;;;6.13;4.22;;;20.20;61.90;;;;;;5269056;26;20021;-71
2024/04/15 11:53:47;;;;;;;6.47;4.03;;;20.20;61.90;;;;;;5267927;26;20469;-71
2024/04/15 11:56:13;;;;;;;7.90;4.65;;;20.20;61.80;;;;;;5276111;26;20002;-71
2024/04/15 11:58:44;;;;;;;6.43;3.92;;;20.20;61.80;;;;;;5265124;26;20017;-71
2024/04/15 12:01:11;;;;;;;7.40;4.25;;;20.20;61.60;;;;;;5274655;26;20009;-73
2024/04/15 12:03:36;;;;;;;7.13;4.40;;;20.20;61.70;;;;;;5269696;26;20003;-73
2024/04/15 12:06:05;;;;;;;6.97;4.22;;;20.20;61.90;;;;;;5264704;26;20010;-72
2024/04/15 12:08:31;;;;;;;8.15;4.80;;;20.20;61.70;;;;;;5266287;26;20002;-73
2024/04/15 12:10:56;;;;;;;6.43;4.20;;;20.20;61.60;;;;;;5256696;26;20018;-71
2024/04/15 12:13:22;;;;;;;7.57;4.47;;;20.20;61.80;;;;;;5254455;26;20082;-73
2024/04/15 12:15:47;;;;;;;6.78;4.50;;;20.20;61.70;;;;;;5257703;26;20533;-71
2024/04/15 12:18:13;;;;;;;5.63;3.97;;;20.20;61.80;;;;;;5255143;26;20021;-72
2024/04/15 12:20:38;;;;;;;6.35;3.92;;;20.20;61.90;;;;;;5258235;26;20012;-71
2024/04/15 12:23:04;;;;;;;5.72;3.78;;;20.20;61.80;;;;;;5257393;26;20006;-72
2024/04/15 12:25:29;;;;;;;6.13;3.88;;;20.20;61.60;;;;;;5261587;26;20014;-70
2024/04/15 12:27:55;;;;;;;6.82;3.75;;;20.20;61.80;;;;;;5251501;26;19999;-72
2024/04/15 12:30:20;;;;;;;5.93;3.50;;;20.20;61.80;;;;;;5265268;26;20017;-72
2024/04/15 12:32:46;;;;;;;5.10;3.33;;;20.20;61.80;;;;;;5253131;26;19998;-71
2024/04/15 12:35:11;;;;;;;5.75;3.13;;;20.20;61.60;;;;;;5254584;26;20011;-72
2024/04/15 12:37:37;;;;;;;6.22;3.72;;;20.20;61.80;;;;;;5250444;26;20013;-72